sensor_id;sensor_type;location;lat;lon;timestamp;pressure;altitude;pressure_sealevel;temperature;humidity
35778;BME280;21899;42.662;23.316;2023-05-02T00:00:30;94709.63;;;12.15;80.71
35778;BME280;21899;42.662;23.316;2023-05-02T00:02:56;94726.88;;;12.21;80.63
35778;BME280;21899;42.662;23.316;2023-05-02T00:05:22;94725.69;;;12.25;80.45
35778;BME280;21899;42.662;23.316;2023-05-02T00:07:48;94723.41;;;12.27;80.32
35778;BME280;21899;42.662;23.316;2023-05-02T00:10:13;94720.72;;;12.27;79.90
35778;BME280;21899;42.662;23.316;2023-05-02T00:12:39;94724.16;;;12.35;79.80
35778;BME280;21899;42.662;23.316;2023-05-02T00:15:05;94728.75;;;12.34;79.65
35778;BME280;21899;42.662;23.316;2023-05-02T00:17:30;94716.88;;;12.35;80.00
35778;BME280;21899;42.662;23.316;2023-05-02T00:19:56;94721.47;;;12.35;80.00
35778;BME280;21899;42.662;23.316;2023-05-02T00:22:21;94732.59;;;12.37;79.71
35778;BME280;21899;42.662;23.316;2023-05-02T00:24:47;94733.75;;;12.39;79.95
35778;BME280;21899;42.662;23.316;2023-05-02T00:27:12;94731.06;;;12.36;79.92
35778;BME280;21899;42.662;23.316;2023-05-02T00:29:38;94730.28;;;12.32;80.07
35778;BME280;21899;42.662;23.316;2023-05-02T00:32:05;94738.34;;;12.42;80.33
35778;BME280;21899;42.662;23.316;2023-05-02T00:34:31;94738.34;;;12.42;79.70
35778;BME280;21899;42.662;23.316;2023-05-02T00:36:57;94746.00;;;12.40;80.25
35778;BME280;21899;42.662;23.316;2023-05-02T00:39:22;94743.31;;;12.40;80.04
35778;BME280;21899;42.662;23.316;2023-05-02T00:41:48;94753.66;;;12.42;80.13
35778;BME280;21899;42.662;23.316;2023-05-02T00:44:14;94737.22;;;12.33;79.99
35778;BME280;21899;42.662;23.316;2023-05-02T00:46:39;94751.75;;;12.35;80.67
35778;BME280;21899;42.662;23.316;2023-05-02T00:49:05;94765.56;;;12.30;81.13
35778;BME280;21899;42.662;23.316;2023-05-02T00:51:33;94751.41;;;12.16;82.19
35778;BME280;21899;42.662;23.316;2023-05-02T00:53:59;94755.22;;;12.18;82.58
35778;BME280;21899;42.662;23.316;2023-05-02T00:56:25;94749.50;;;12.16;82.81
35778;BME280;21899;42.662;23.316;2023-05-02T00:58:51;94739.53;;;12.10;82.78
35778;BME280;21899;42.662;23.316;2023-05-02T01:01:25;94755.25;;;12.11;83.01
35778;BME280;21899;42.662;23.316;2023-05-02T01:06:56;94760.22;;;11.95;84.58
35778;BME280;21899;42.662;23.316;2023-05-02T01:14:41;94753.31;;;11.83;86.07
35778;BME280;21899;42.662;23.316;2023-05-02T01:17:10;94744.13;;;11.85;85.91
35778;BME280;21899;42.662;23.316;2023-05-02T01:19:57;94746.44;;;11.86;86.06
35778;BME280;21899;42.662;23.316;2023-05-02T01:22:26;94727.25;;;11.80;86.00
35778;BME280;21899;42.662;23.316;2023-05-02T01:30:00;94736.47;;;11.76;87.36
35778;BME280;21899;42.662;23.316;2023-05-02T01:32:28;94738.00;;;11.70;88.21
35778;BME280;21899;42.662;23.316;2023-05-02T01:34:56;94738.75;;;11.67;88.76
35778;BME280;21899;42.662;23.316;2023-05-02T01:37:23;94744.09;;;11.60;89.38
35778;BME280;21899;42.662;23.316;2023-05-02T01:39:50;94737.16;;;11.52;90.16
35778;BME280;21899;42.662;23.316;2023-05-02T01:42:17;94736.78;;;11.43;90.79
35778;BME280;21899;42.662;23.316;2023-05-02T01:44:45;94747.09;;;11.41;91.80
35778;BME280;21899;42.662;23.316;2023-05-02T01:47:12;94732.53;;;11.28;92.49
35778;BME280;21899;42.662;23.316;2023-05-02T01:49:39;94740.94;;;11.19;93.84
35778;BME280;21899;42.662;23.316;2023-05-02T01:52:10;94743.22;;;11.17;94.32
35778;BME280;21899;42.662;23.316;2023-05-02T01:54:36;94735.94;;;11.07;94.83
35778;BME280;21899;42.662;23.316;2023-05-02T01:57:04;94742.41;;;11.06;95.79
35778;BME280;21899;42.662;23.316;2023-05-02T01:59:32;94737.06;;;11.03;96.01
35778;BME280;21899;42.662;23.316;2023-05-02T02:02:00;94735.53;;;11.02;96.48
35778;BME280;21899;42.662;23.316;2023-05-02T02:04:27;94734.75;;;11.01;96.81
35778;BME280;21899;42.662;23.316;2023-05-02T02:06:57;94728.63;;;11.01;97.07
35778;BME280;21899;42.662;23.316;2023-05-02T02:09:25;94733.19;;;10.93;97.17
35778;BME280;21899;42.662;23.316;2023-05-02T02:14:36;94735.09;;;10.93;98.24
35778;BME280;21899;42.662;23.316;2023-05-02T02:17:07;94726.69;;;10.91;98.24
35778;BME280;21899;42.662;23.316;2023-05-02T02:19:36;94729.38;;;10.91;97.66
35778;BME280;21899;42.662;23.316;2023-05-02T02:22:04;94728.97;;;10.89;97.63
35778;BME280;21899;42.662;23.316;2023-05-02T02:24:35;94730.13;;;10.91;97.70
35778;BME280;21899;42.662;23.316;2023-05-02T02:27:00;94743.50;;;10.88;98.07
35778;BME280;21899;42.662;23.316;2023-05-02T02:29:26;94735.09;;;10.86;98.59
35778;BME280;21899;42.662;23.316;2023-05-02T02:31:52;94736.97;;;10.82;98.52
35778;BME280;21899;42.662;23.316;2023-05-02T02:34:18;94741.56;;;10.81;98.56
35778;BME280;21899;42.662;23.316;2023-05-02T02:36:54;94729.31;;;10.77;98.53
35778;BME280;21899;42.662;23.316;2023-05-02T02:42:02;94740.00;;;10.77;98.75
35778;BME280;21899;42.662;23.316;2023-05-02T02:50:19;94736.16;;;10.67;99.40
35778;BME280;21899;42.662;23.316;2023-05-02T02:53:03;94738.81;;;10.64;99.81
35778;BME280;21899;42.662;23.316;2023-05-02T02:55:37;94756.03;;;10.70;99.71
35778;BME280;21899;42.662;23.316;2023-05-02T02:58:14;94743.03;;;10.68;99.59
35778;BME280;21899;42.662;23.316;2023-05-02T03:00:43;94752.25;;;10.71;99.40
35778;BME280;21899;42.662;23.316;2023-05-02T03:03:13;94764.47;;;10.72;99.88
35778;BME280;21899;42.662;23.316;2023-05-02T03:05:40;94755.28;;;10.73;99.51
35778;BME280;21899;42.662;23.316;2023-05-02T03:08:06;94756.44;;;10.72;99.37
35778;BME280;21899;42.662;23.316;2023-05-02T03:10:31;94756.09;;;10.77;99.08
35778;BME280;21899;42.662;23.316;2023-05-02T03:12:58;94766.78;;;10.77;99.20
35778;BME280;21899;42.662;23.316;2023-05-02T03:16:00;94770.63;;;10.76;99.54
35778;BME280;21899;42.662;23.316;2023-05-02T03:18:30;94771.34;;;10.73;100.00
35778;BME280;21899;42.662;23.316;2023-05-02T03:20:55;94762.16;;;10.67;100.00
35778;BME280;21899;42.662;23.316;2023-05-02T03:23:21;94781.28;;;10.69;99.66
35778;BME280;21899;42.662;23.316;2023-05-02T03:25:46;94787.41;;;10.73;99.56
35778;BME280;21899;42.662;23.316;2023-05-02T03:28:11;94780.94;;;10.74;99.40
35778;BME280;21899;42.662;23.316;2023-05-02T03:30:38;94779.38;;;10.73;99.04
35778;BME280;21899;42.662;23.316;2023-05-02T03:33:04;94780.16;;;10.73;98.90
35778;BME280;21899;42.662;23.316;2023-05-02T03:35:32;94773.66;;;10.71;98.81
35778;BME280;21899;42.662;23.316;2023-05-02T03:37:58;94775.59;;;10.77;98.37
35778;BME280;21899;42.662;23.316;2023-05-02T03:40:23;94776.38;;;10.81;98.28
35778;BME280;21899;42.662;23.316;2023-05-02T03:42:49;94781.69;;;10.78;98.07
35778;BME280;21899;42.662;23.316;2023-05-02T03:45:14;94776.75;;;10.83;97.11
35778;BME280;21899;42.662;23.316;2023-05-02T03:47:39;94772.94;;;10.84;96.86
35778;BME280;21899;42.662;23.316;2023-05-02T03:50:05;94779.09;;;10.88;96.59
35778;BME280;21899;42.662;23.316;2023-05-02T03:52:32;94785.22;;;10.96;96.08
35778;BME280;21899;42.662;23.316;2023-05-02T03:55:00;94781.03;;;10.95;96.00
35778;BME280;21899;42.662;23.316;2023-05-02T03:57:29;94778.38;;;10.98;96.08
35778;BME280;21899;42.662;23.316;2023-05-02T03:59:54;94785.25;;;10.99;95.94
35778;BME280;21899;42.662;23.316;2023-05-02T04:02:20;94787.94;;;10.99;95.72
35778;BME280;21899;42.662;23.316;2023-05-02T04:04:45;94779.13;;;10.99;95.77
35778;BME280;21899;42.662;23.316;2023-05-02T04:07:11;94787.59;;;11.08;95.40
35778;BME280;21899;42.662;23.316;2023-05-02T04:09:42;94780.31;;;11.05;95.08
35778;BME280;21899;42.662;23.316;2023-05-02T04:12:07;94791.06;;;11.22;94.82
35778;BME280;21899;42.662;23.316;2023-05-02T04:14:33;94786.13;;;11.28;93.40
35778;BME280;21899;42.662;23.316;2023-05-02T04:16:58;94787.69;;;11.39;92.82
35778;BME280;21899;42.662;23.316;2023-05-02T04:19:24;94777.38;;;11.41;92.19
35778;BME280;21899;42.662;23.316;2023-05-02T04:21:49;94781.97;;;11.48;91.29
35778;BME280;21899;42.662;23.316;2023-05-02T04:24:15;94778.53;;;11.51;90.63
35778;BME280;21899;42.662;23.316;2023-05-02T04:26:40;94780.84;;;11.63;90.09
35778;BME280;21899;42.662;23.316;2023-05-02T04:29:06;94779.75;;;11.71;89.38
35778;BME280;21899;42.662;23.316;2023-05-02T04:31:31;94790.13;;;12.04;87.40
35778;BME280;21899;42.662;23.316;2023-05-02T04:33:57;94796.25;;;12.33;85.52
35778;BME280;21899;42.662;23.316;2023-05-02T04:36:23;94792.00;;;12.60;83.29
35778;BME280;21899;42.662;23.316;2023-05-02T04:38:50;94785.38;;;12.92;80.56
35778;BME280;21899;42.662;23.316;2023-05-02T04:41:15;94788.47;;;13.01;78.08
35778;BME280;21899;42.662;23.316;2023-05-02T04:43:41;94795.69;;;13.22;76.76
35778;BME280;21899;42.662;23.316;2023-05-02T04:46:06;94800.59;;;13.34;74.96
35778;BME280;21899;42.662;23.316;2023-05-02T04:48:32;94798.28;;;13.40;74.22
35778;BME280;21899;42.662;23.316;2023-05-02T04:50:57;94790.97;;;13.44;73.92
35778;BME280;21899;42.662;23.316;2023-05-02T04:53:23;94798.63;;;13.49;72.93
35778;BME280;21899;42.662;23.316;2023-05-02T04:55:48;94802.09;;;13.42;72.47
35778;BME280;21899;42.662;23.316;2023-05-02T04:58:14;94810.53;;;13.51;71.84
35778;BME280;21899;42.662;23.316;2023-05-02T05:00:40;94807.44;;;13.53;71.25
35778;BME280;21899;42.662;23.316;2023-05-02T05:03:05;94799.06;;;13.40;71.48
35778;BME280;21899;42.662;23.316;2023-05-02T05:05:31;94804.44;;;13.37;71.63
35778;BME280;21899;42.662;23.316;2023-05-02T05:07:57;94794.50;;;13.34;71.60
35778;BME280;21899;42.662;23.316;2023-05-02T05:10:22;94806.00;;;13.27;72.06
35778;BME280;21899;42.662;23.316;2023-05-02T05:12:47;94799.09;;;13.30;71.94
35778;BME280;21899;42.662;23.316;2023-05-02T05:15:14;94802.19;;;13.25;71.73
35778;BME280;21899;42.662;23.316;2023-05-02T05:17:39;94806.84;;;13.14;72.29
35778;BME280;21899;42.662;23.316;2023-05-02T05:20:07;94797.28;;;13.05;72.89
35778;BME280;21899;42.662;23.316;2023-05-02T05:22:37;94804.56;;;13.08;72.64
35778;BME280;21899;42.662;23.316;2023-05-02T05:25:03;94815.72;;;13.07;72.91
35778;BME280;21899;42.662;23.316;2023-05-02T05:27:29;94809.91;;;13.16;72.70
35778;BME280;21899;42.662;23.316;2023-05-02T05:29:54;94804.53;;;13.16;72.97
35778;BME280;21899;42.662;23.316;2023-05-02T05:32:19;94812.91;;;13.39;71.86
35778;BME280;21899;42.662;23.316;2023-05-02T05:34:50;94821.97;;;13.66;69.93
35778;BME280;21899;42.662;23.316;2023-05-02T05:37:16;94815.84;;;13.62;69.85
35778;BME280;21899;42.662;23.316;2023-05-02T05:39:41;94814.72;;;13.56;69.74
35778;BME280;21899;42.662;23.316;2023-05-02T05:42:07;94826.56;;;13.65;69.29
35778;BME280;21899;42.662;23.316;2023-05-02T05:44:33;94820.78;;;13.74;68.28
35778;BME280;21899;42.662;23.316;2023-05-02T05:46:58;94830.38;;;13.75;68.55
35778;BME280;21899;42.662;23.316;2023-05-02T05:49:23;94826.88;;;13.81;68.07
35778;BME280;21899;42.662;23.316;2023-05-02T05:51:49;94827.94;;;13.98;67.63
35778;BME280;21899;42.662;23.316;2023-05-02T05:54:16;94830.53;;;14.12;66.18
35778;BME280;21899;42.662;23.316;2023-05-02T05:56:41;94824.38;;;14.11;65.88
35778;BME280;21899;42.662;23.316;2023-05-02T05:59:06;94830.19;;;14.06;66.29
35778;BME280;21899;42.662;23.316;2023-05-02T06:01:32;94831.88;;;13.83;66.86
35778;BME280;21899;42.662;23.316;2023-05-02T06:03:58;94817.75;;;13.65;67.36
35778;BME280;21899;42.662;23.316;2023-05-02T06:06:23;94834.63;;;13.72;67.49
35778;BME280;21899;42.662;23.316;2023-05-02T06:08:49;94834.22;;;13.74;66.85
35778;BME280;21899;42.662;23.316;2023-05-02T06:11:14;94840.69;;;13.83;66.88
35778;BME280;21899;42.662;23.316;2023-05-02T06:13:39;94831.84;;;13.90;66.15
35778;BME280;21899;42.662;23.316;2023-05-02T06:16:05;94829.03;;;14.04;64.49
35778;BME280;21899;42.662;23.316;2023-05-02T06:18:30;94831.69;;;14.11;64.20
35778;BME280;21899;42.662;23.316;2023-05-02T06:20:56;94832.06;;;14.13;63.16
35778;BME280;21899;42.662;23.316;2023-05-02T06:23:22;94826.28;;;14.14;63.03
35778;BME280;21899;42.662;23.316;2023-05-02T06:25:47;94825.50;;;14.17;62.89
35778;BME280;21899;42.662;23.316;2023-05-02T06:28:12;94820.88;;;14.18;62.98
35778;BME280;21899;42.662;23.316;2023-05-02T06:30:38;94822.31;;;14.33;62.34
35778;BME280;21899;42.662;23.316;2023-05-02T06:33:04;94826.44;;;14.45;61.83
35778;BME280;21899;42.662;23.316;2023-05-02T06:35:30;94826.06;;;14.46;60.72
35778;BME280;21899;42.662;23.316;2023-05-02T06:37:55;94820.72;;;14.43;60.54
35778;BME280;21899;42.662;23.316;2023-05-02T06:40:20;94821.41;;;14.50;60.84
35778;BME280;21899;42.662;23.316;2023-05-02T06:42:46;94823.66;;;14.59;60.23
35778;BME280;21899;42.662;23.316;2023-05-02T06:45:12;94823.91;;;14.71;59.61
35778;BME280;21899;42.662;23.316;2023-05-02T06:47:37;94824.16;;;14.87;58.94
35778;BME280;21899;42.662;23.316;2023-05-02T06:50:02;94817.59;;;14.88;57.69
35778;BME280;21899;42.662;23.316;2023-05-02T06:52:28;94820.28;;;14.88;57.42
35778;BME280;21899;42.662;23.316;2023-05-02T06:54:53;94814.13;;;14.88;56.00
35778;BME280;21899;42.662;23.316;2023-05-02T06:57:19;94813.78;;;14.86;56.33
35778;BME280;21899;42.662;23.316;2023-05-02T06:59:44;94820.25;;;14.92;56.14
35778;BME280;21899;42.662;23.316;2023-05-02T07:02:10;94807.81;;;15.01;55.81
35778;BME280;21899;42.662;23.316;2023-05-02T07:04:35;94808.47;;;15.12;55.22
35778;BME280;21899;42.662;23.316;2023-05-02T07:07:00;94815.25;;;15.24;54.19
35778;BME280;21899;42.662;23.316;2023-05-02T07:09:26;94823.03;;;15.18;53.35
35778;BME280;21899;42.662;23.316;2023-05-02T07:11:51;94826.84;;;15.21;53.62
35778;BME280;21899;42.662;23.316;2023-05-02T07:14:17;94827.19;;;15.26;53.17
35778;BME280;21899;42.662;23.316;2023-05-02T07:16:42;94831.81;;;15.26;52.84
35778;BME280;21899;42.662;23.316;2023-05-02T07:19:08;94827.66;;;15.18;52.34
35778;BME280;21899;42.662;23.316;2023-05-02T07:21:33;94829.94;;;15.23;52.17
35778;BME280;21899;42.662;23.316;2023-05-02T07:23:58;94828.81;;;15.20;51.77
35778;BME280;21899;42.662;23.316;2023-05-02T07:26:24;94828.03;;;15.20;52.09
35778;BME280;21899;42.662;23.316;2023-05-02T07:28:51;94833.03;;;15.21;51.95
35778;BME280;21899;42.662;23.316;2023-05-02T07:31:17;94830.16;;;15.35;51.76
35778;BME280;21899;42.662;23.316;2023-05-02T07:33:42;94824.19;;;15.54;51.60
35778;BME280;21899;42.662;23.316;2023-05-02T07:36:07;94829.50;;;15.61;50.26
35778;BME280;21899;42.662;23.316;2023-05-02T07:38:33;94832.84;;;15.69;50.06
35778;BME280;21899;42.662;23.316;2023-05-02T07:40:59;94834.75;;;15.72;49.83
35778;BME280;21899;42.662;23.316;2023-05-02T07:43:25;94833.88;;;15.79;50.02
35778;BME280;21899;42.662;23.316;2023-05-02T07:45:50;94838.59;;;16.01;49.45
35778;BME280;21899;42.662;23.316;2023-05-02T07:48:16;94839.56;;;16.14;48.97
35778;BME280;21899;42.662;23.316;2023-05-02T07:50:41;94840.56;;;16.24;49.08
35778;BME280;21899;42.662;23.316;2023-05-02T07:53:07;94837.72;;;16.34;48.27
35778;BME280;21899;42.662;23.316;2023-05-02T07:55:32;94833.19;;;16.28;48.13
35778;BME280;21899;42.662;23.316;2023-05-02T07:57:58;94838.59;;;16.28;48.19
35778;BME280;21899;42.662;23.316;2023-05-02T08:00:23;94831.50;;;16.37;47.86
35778;BME280;21899;42.662;23.316;2023-05-02T08:02:48;94838.56;;;16.54;47.75
35778;BME280;21899;42.662;23.316;2023-05-02T08:05:14;94821.44;;;16.38;47.85
35778;BME280;21899;42.662;23.316;2023-05-02T08:07:39;94832.94;;;16.45;47.72
35778;BME280;21899;42.662;23.316;2023-05-02T08:10:05;94817.97;;;16.64;47.35
35778;BME280;21899;42.662;23.316;2023-05-02T08:12:31;94835.25;;;16.70;46.51
35778;BME280;21899;42.662;23.316;2023-05-02T08:14:56;94830.88;;;16.76;46.65
35778;BME280;21899;42.662;23.316;2023-05-02T08:17:22;94830.81;;;16.79;46.46
35778;BME280;21899;42.662;23.316;2023-05-02T08:19:47;94830.66;;;16.90;46.93
35778;BME280;21899;42.662;23.316;2023-05-02T08:22:13;94831.66;;;17.19;45.35
35778;BME280;21899;42.662;23.316;2023-05-02T08:24:38;94833.53;;;17.42;44.76
35778;BME280;21899;42.662;23.316;2023-05-02T08:27:03;94838.75;;;17.52;44.50
35778;BME280;21899;42.662;23.316;2023-05-02T08:29:29;94829.25;;;17.64;43.82
35778;BME280;21899;42.662;23.316;2023-05-02T08:31:55;94829.53;;;17.50;43.96
35778;BME280;21899;42.662;23.316;2023-05-02T08:34:21;94824.66;;;17.61;44.49
35778;BME280;21899;42.662;23.316;2023-05-02T08:36:46;94833.69;;;17.74;44.03
35778;BME280;21899;42.662;23.316;2023-05-02T08:39:12;94834.09;;;17.72;43.89
35778;BME280;21899;42.662;23.316;2023-05-02T08:41:37;94825.22;;;18.07;44.07
35778;BME280;21899;42.662;23.316;2023-05-02T08:44:05;94818.19;;;18.46;43.21
35778;BME280;21899;42.662;23.316;2023-05-02T08:46:31;94826.88;;;18.69;42.54
35778;BME280;21899;42.662;23.316;2023-05-02T08:49:00;94821.47;;;18.85;42.44
35778;BME280;21899;42.662;23.316;2023-05-02T08:51:26;94823.91;;;18.80;41.53
35778;BME280;21899;42.662;23.316;2023-05-02T08:53:53;94814.91;;;18.83;41.39
35778;BME280;21899;42.662;23.316;2023-05-02T08:56:19;94815.13;;;18.76;41.26
35778;BME280;21899;42.662;23.316;2023-05-02T08:58:45;94812.56;;;18.69;41.62
35778;BME280;21899;42.662;23.316;2023-05-02T09:01:18;94818.66;;;18.73;41.12
35778;BME280;21899;42.662;23.316;2023-05-02T09:03:46;94813.22;;;18.73;41.15
35778;BME280;21899;42.662;23.316;2023-05-02T09:06:14;94818.81;;;18.82;41.43
35778;BME280;21899;42.662;23.316;2023-05-02T09:08:41;94815.13;;;18.76;41.09
35778;BME280;21899;42.662;23.316;2023-05-02T09:11:08;94810.53;;;18.73;40.79
35778;BME280;21899;42.662;23.316;2023-05-02T09:21:07;94811.88;;;18.81;40.01
35778;BME280;21899;42.662;23.316;2023-05-02T09:23:33;94803.91;;;18.90;39.39
35778;BME280;21899;42.662;23.316;2023-05-02T09:26:00;94796.19;;;18.88;39.08
35778;BME280;21899;42.662;23.316;2023-05-02T09:28:42;94806.91;;;19.08;39.09
35778;BME280;21899;42.662;23.316;2023-05-02T09:31:19;94803.66;;;19.29;38.17
35778;BME280;21899;42.662;23.316;2023-05-02T09:33:46;94797.09;;;18.98;38.09
35778;BME280;21899;42.662;23.316;2023-05-02T09:36:14;94801.44;;;19.24;38.09
35778;BME280;21899;42.662;23.316;2023-05-02T09:38:41;94797.38;;;19.32;38.21
35778;BME280;21899;42.662;23.316;2023-05-02T09:41:07;94791.63;;;19.14;38.44
35778;BME280;21899;42.662;23.316;2023-05-02T09:43:32;94795.75;;;19.34;38.93
35778;BME280;21899;42.662;23.316;2023-05-02T09:48:28;94798.22;;;19.29;37.37
35778;BME280;21899;42.662;23.316;2023-05-02T09:50:53;94792.97;;;19.22;37.16
35778;BME280;21899;42.662;23.316;2023-05-02T09:53:20;94791.16;;;19.03;37.76
35778;BME280;21899;42.662;23.316;2023-05-02T09:55:45;94796.00;;;19.24;37.63
35778;BME280;21899;42.662;23.316;2023-05-02T09:58:19;94775.59;;;19.48;36.76
35778;BME280;21899;42.662;23.316;2023-05-02T10:00:49;94786.59;;;19.70;36.26
35778;BME280;21899;42.662;23.316;2023-05-02T10:03:16;94772.78;;;19.77;36.06
35778;BME280;21899;42.662;23.316;2023-05-02T10:05:44;94767.94;;;19.84;36.17
35778;BME280;21899;42.662;23.316;2023-05-02T10:08:11;94757.19;;;20.06;36.06
35778;BME280;21899;42.662;23.316;2023-05-02T10:10:39;94775.31;;;20.46;35.53
35778;BME280;21899;42.662;23.316;2023-05-02T10:13:06;94770.94;;;20.61;34.54
35778;BME280;21899;42.662;23.316;2023-05-02T10:15:33;94764.78;;;20.83;34.92
35778;BME280;21899;42.662;23.316;2023-05-02T10:17:59;94757.13;;;21.03;33.58
35778;BME280;21899;42.662;23.316;2023-05-02T10:21:04;94755.75;;;21.20;33.56
35778;BME280;21899;42.662;23.316;2023-05-02T10:23:28;94772.44;;;21.09;33.03
35778;BME280;21899;42.662;23.316;2023-05-02T10:25:54;94767.19;;;20.81;33.33
35778;BME280;21899;42.662;23.316;2023-05-02T10:28:20;94756.00;;;20.79;33.34
35778;BME280;21899;42.662;23.316;2023-05-02T10:30:46;94759.59;;;20.76;33.06
35778;BME280;21899;42.662;23.316;2023-05-02T10:33:15;94759.06;;;20.68;33.45
35778;BME280;21899;42.662;23.316;2023-05-02T10:35:44;94750.22;;;20.77;32.85
35778;BME280;21899;42.662;23.316;2023-05-02T10:38:15;94754.22;;;20.50;33.45
35778;BME280;21899;42.662;23.316;2023-05-02T10:40:47;94747.06;;;20.31;33.43
35778;BME280;21899;42.662;23.316;2023-05-02T10:43:24;94751.72;;;20.43;33.21
35778;BME280;21899;42.662;23.316;2023-05-02T10:45:51;94748.44;;;20.48;32.93
35778;BME280;21899;42.662;23.316;2023-05-02T10:48:22;94744.72;;;20.55;33.05
35778;BME280;21899;42.662;23.316;2023-05-02T10:50:50;94747.50;;;20.77;33.33
35778;BME280;21899;42.662;23.316;2023-05-02T10:58:32;94740.91;;;21.21;32.61
35778;BME280;21899;42.662;23.316;2023-05-02T11:04:02;94742.66;;;20.93;31.92
35778;BME280;21899;42.662;23.316;2023-05-02T11:06:30;94739.34;;;20.77;32.04
35778;BME280;21899;42.662;23.316;2023-05-02T11:11:53;94727.19;;;20.34;32.71
35778;BME280;21899;42.662;23.316;2023-05-02T11:19:23;94731.75;;;20.00;32.62
35778;BME280;21899;42.662;23.316;2023-05-02T11:21:48;94733.78;;;20.08;33.16
35778;BME280;21899;42.662;23.316;2023-05-02T11:30:09;94716.16;;;20.50;32.96
35778;BME280;21899;42.662;23.316;2023-05-02T11:35:21;94711.09;;;20.61;33.07
35778;BME280;21899;42.662;23.316;2023-05-02T11:38:13;94719.38;;;20.92;32.97
35778;BME280;21899;42.662;23.316;2023-05-02T11:40:39;94713.97;;;20.80;32.42
35778;BME280;21899;42.662;23.316;2023-05-02T11:43:17;94718.66;;;20.79;32.76
35778;BME280;21899;42.662;23.316;2023-05-02T11:45:43;94697.50;;;20.61;32.80
35778;BME280;21899;42.662;23.316;2023-05-02T11:48:14;94698.66;;;20.73;33.11
35778;BME280;21899;42.662;23.316;2023-05-02T11:50:41;94697.66;;;20.80;33.29
35778;BME280;21899;42.662;23.316;2023-05-02T11:53:11;94699.19;;;21.24;32.59
35778;BME280;21899;42.662;23.316;2023-05-02T11:55:43;94696.22;;;21.31;31.79
35778;BME280;21899;42.662;23.316;2023-05-02T11:58:17;94713.31;;;21.31;32.51
35778;BME280;21899;42.662;23.316;2023-05-02T12:00:43;94699.41;;;21.08;32.20
35778;BME280;21899;42.662;23.316;2023-05-02T12:05:48;94686.91;;;21.41;31.97
35778;BME280;21899;42.662;23.316;2023-05-02T12:08:27;94674.66;;;21.15;32.02
35778;BME280;21899;42.662;23.316;2023-05-02T12:10:54;94677.81;;;21.13;32.11
35778;BME280;21899;42.662;23.316;2023-05-02T12:13:22;94670.88;;;21.43;32.26
35778;BME280;21899;42.662;23.316;2023-05-02T12:15:49;94661.34;;;21.47;31.54
35778;BME280;21899;42.662;23.316;2023-05-02T12:18:15;94670.38;;;21.66;32.06
35778;BME280;21899;42.662;23.316;2023-05-02T12:20:41;94666.88;;;21.56;31.87
35778;BME280;21899;42.662;23.316;2023-05-02T12:23:08;94671.50;;;21.47;31.81
35778;BME280;21899;42.662;23.316;2023-05-02T12:25:40;94662.00;;;21.51;31.57
35778;BME280;21899;42.662;23.316;2023-05-02T12:28:06;94661.84;;;21.24;32.27
35778;BME280;21899;42.662;23.316;2023-05-02T12:30:32;94654.94;;;21.32;32.08
35778;BME280;21899;42.662;23.316;2023-05-02T12:32:59;94656.09;;;21.53;31.70
35778;BME280;21899;42.662;23.316;2023-05-02T12:35:29;94652.22;;;21.63;31.85
35778;BME280;21899;42.662;23.316;2023-05-02T12:38:07;94647.63;;;21.81;31.40
35778;BME280;21899;42.662;23.316;2023-05-02T12:40:33;94643.53;;;21.95;31.20
35778;BME280;21899;42.662;23.316;2023-05-02T12:43:00;94637.81;;;21.93;31.03
35778;BME280;21899;42.662;23.316;2023-05-02T12:45:29;94640.28;;;21.69;30.81
35778;BME280;21899;42.662;23.316;2023-05-02T12:48:01;94622.50;;;21.47;31.26
35778;BME280;21899;42.662;23.316;2023-05-02T12:50:39;94629.50;;;21.66;31.71
35778;BME280;21899;42.662;23.316;2023-05-02T12:53:05;94629.25;;;21.73;30.51
35778;BME280;21899;42.662;23.316;2023-05-02T12:55:31;94642.22;;;21.60;31.03
35778;BME280;21899;42.662;23.316;2023-05-02T12:58:05;94624.91;;;21.45;30.79
35778;BME280;21899;42.662;23.316;2023-05-02T13:00:31;94620.69;;;21.22;30.75
35778;BME280;21899;42.662;23.316;2023-05-02T13:02:57;94626.59;;;20.77;31.43
35778;BME280;21899;42.662;23.316;2023-05-02T13:05:22;94631.03;;;20.62;31.87
35778;BME280;21899;42.662;23.316;2023-05-02T13:07:48;94625.97;;;20.73;31.98
35778;BME280;21899;42.662;23.316;2023-05-02T13:10:14;94634.84;;;20.87;31.62
35778;BME280;21899;42.662;23.316;2023-05-02T13:12:42;94630.16;;;20.87;31.85
35778;BME280;21899;42.662;23.316;2023-05-02T13:15:08;94635.59;;;20.65;31.85
35778;BME280;21899;42.662;23.316;2023-05-02T13:17:34;94643.19;;;20.70;32.29
35778;BME280;21899;42.662;23.316;2023-05-02T13:20:00;94643.94;;;20.93;32.15
35778;BME280;21899;42.662;23.316;2023-05-02T13:22:26;94634.72;;;21.12;31.06
35778;BME280;21899;42.662;23.316;2023-05-02T13:24:52;94639.13;;;20.97;31.08
35778;BME280;21899;42.662;23.316;2023-05-02T13:27:17;94625.97;;;20.73;31.28
35778;BME280;21899;42.662;23.316;2023-05-02T13:29:44;94628.06;;;20.69;31.65
35778;BME280;21899;42.662;23.316;2023-05-02T13:32:09;94631.53;;;20.92;30.97
35778;BME280;21899;42.662;23.316;2023-05-02T13:34:36;94640.66;;;20.98;31.42
35778;BME280;21899;42.662;23.316;2023-05-02T13:37:01;94624.28;;;21.10;30.96
35778;BME280;21899;42.662;23.316;2023-05-02T13:39:27;94623.69;;;20.94;30.53
35778;BME280;21899;42.662;23.316;2023-05-02T13:41:52;94630.16;;;20.87;31.13
35778;BME280;21899;42.662;23.316;2023-05-02T13:44:17;94631.97;;;20.90;31.09
35778;BME280;21899;42.662;23.316;2023-05-02T13:46:43;94636.97;;;20.70;30.84
35778;BME280;21899;42.662;23.316;2023-05-02T13:49:08;94625.91;;;20.64;31.28
35778;BME280;21899;42.662;23.316;2023-05-02T13:51:34;94630.16;;;20.65;30.80